Time;durP1;ratioP1;P1;durP2;ratioP2;P2;SDS_P1;SDS_P2;PMS_P1;PMS_P2;Temp;Humidity;BMP_temperature;BMP_pressure;BME280_temperature;BME280_humidity;BME280_pressure;Samples;Min_cycle;Max_cycle;Signal;HPM_P1;HPM_P2
2023/08/24 00:00:50;;;;;;;7.20;5.13;;;20.20;99.90;;;;;;5089057;28;20166;-68
2023/08/24 00:03:15;;;;;;;8.53;5.57;;;20.20;99.90;;;;;;5088972;28;20737;-68
2023/08/24 00:05:42;;;;;;;5.40;4.90;;;20.10;99.90;;;;;;5088823;28;20202;-68
2023/08/24 00:08:08;;;;;;;9.60;5.23;;;20.10;99.90;;;;;;5087367;28;20178;-68
2023/08/24 00:10:35;;;;;;;7.80;5.60;;;19.80;99.90;;;;;;5088935;28;20436;-67
2023/08/24 00:13:01;;;;;;;6.67;5.50;;;19.60;99.90;;;;;;5088822;28;20420;-68
2023/08/24 00:15:26;;;;;;;6.90;6.20;;;19.50;99.90;;;;;;5088633;28;20525;-67
2023/08/24 00:17:52;;;;;;;8.40;5.90;;;19.40;99.90;;;;;;5088753;28;21078;-67
2023/08/24 00:20:19;;;;;;;9.07;5.20;;;19.40;99.90;;;;;;5088744;28;20230;-67
2023/08/24 00:22:46;;;;;;;7.23;5.70;;;19.40;99.90;;;;;;5088854;28;20171;-67
2023/08/24 00:25:12;;;;;;;7.70;5.30;;;19.50;99.90;;;;;;5092245;28;20447;-67
2023/08/24 00:27:38;;;;;;;6.37;5.67;;;19.60;99.90;;;;;;5092995;28;20408;-68
2023/08/24 00:30:06;;;;;;;6.53;5.70;;;19.60;99.90;;;;;;5092683;28;20428;-67
2023/08/24 00:32:35;;;;;;;14.33;6.20;;;19.60;99.90;;;;;;5092702;28;20193;-68
2023/08/24 00:35:06;;;;;;;9.73;6.30;;;19.50;99.90;;;;;;5092718;28;20439;-68
2023/08/24 00:37:31;;;;;;;6.70;5.80;;;19.50;99.90;;;;;;5092635;28;20834;-67
2023/08/24 00:39:59;;;;;;;6.90;6.10;;;19.40;99.90;;;;;;5092574;28;20416;-67
2023/08/24 00:42:26;;;;;;;10.10;6.57;;;19.40;99.90;;;;;;5092626;28;20190;-67
2023/08/24 00:44:51;;;;;;;7.50;5.30;;;19.40;99.90;;;;;;5091262;28;20924;-67
2023/08/24 00:47:17;;;;;;;10.63;5.40;;;19.40;99.90;;;;;;5092545;28;20412;-68
2023/08/24 00:49:43;;;;;;;6.33;5.40;;;19.50;99.90;;;;;;5091154;28;20633;-67
2023/08/24 00:52:10;;;;;;;7.47;5.40;;;19.40;99.90;;;;;;5092570;28;20189;-68
2023/08/24 00:54:39;;;;;;;7.50;5.53;;;19.40;99.90;;;;;;5092163;28;20461;-67
2023/08/24 00:57:05;;;;;;;8.50;4.87;;;19.40;99.90;;;;;;5092351;28;20456;-67
2023/08/24 00:59:32;;;;;;;11.87;5.73;;;19.40;99.90;;;;;;5092997;28;20424;-66
2023/08/24 01:01:59;;;;;;;10.07;5.90;;;19.30;99.90;;;;;;5092356;28;20408;-66
2023/08/24 01:04:25;;;;;;;11.67;5.50;;;19.30;99.90;;;;;;5092050;28;20942;-67
2023/08/24 01:06:52;;;;;;;20.33;6.37;;;19.20;99.90;;;;;;5091979;28;20474;-67
2023/08/24 01:09:19;;;;;;;11.50;6.00;;;19.20;99.90;;;;;;5091890;28;20804;-67
2023/08/24 01:12:08;;;;;;;6.23;5.40;;;19.20;99.90;;;;;;5091936;28;20512;-67
2023/08/24 01:14:37;;;;;;;8.53;5.03;;;19.30;99.90;;;;;;5091670;28;20455;-68
2023/08/24 01:17:06;;;;;;;10.70;5.70;;;19.30;99.90;;;;;;5091638;28;20512;-67
2023/08/24 01:19:41;;;;;;;9.53;6.07;;;19.20;99.90;;;;;;5091691;28;20431;-67
2023/08/24 01:22:34;;;;;;;11.13;6.30;;;19.00;99.90;;;;;;5090188;28;20430;-68
2023/08/24 01:25:12;;;;;;;7.37;4.83;;;18.80;99.90;;;;;;5091638;28;20465;-68
2023/08/24 01:27:38;;;;;;;6.07;5.40;;;18.80;99.90;;;;;;5091714;28;20447;-67
2023/08/24 01:30:05;;;;;;;5.97;5.37;;;18.90;99.90;;;;;;5090077;28;20503;-67
2023/08/24 01:32:34;;;;;;;6.43;5.20;;;19.00;99.90;;;;;;5091723;28;20452;-68
2023/08/24 01:35:09;;;;;;;7.00;5.40;;;19.00;99.90;;;;;;5088952;28;20527;-68
2023/08/24 01:37:35;;;;;;;5.73;4.93;;;19.00;99.90;;;;;;5091465;28;20543;-67
2023/08/24 01:40:13;;;;;;;12.53;5.77;;;19.00;99.90;;;;;;5091232;28;20424;-68
2023/08/24 01:42:56;;;;;;;10.83;5.30;;;19.10;99.90;;;;;;5091413;28;20420;-67
2023/08/24 01:45:27;;;;;;;8.43;5.83;;;19.10;99.90;;;;;;5091240;28;20428;-67
2023/08/24 01:47:54;;;;;;;7.90;5.80;;;19.10;99.90;;;;;;5091204;28;20410;-68
2023/08/24 01:50:20;;;;;;;9.00;6.03;;;19.10;99.90;;;;;;5091320;28;20874;-68
2023/08/24 01:52:46;;;;;;;5.37;4.63;;;19.10;99.90;;;;;;5091140;28;20445;-67
2023/08/24 01:55:12;;;;;;;7.63;5.20;;;19.10;99.90;;;;;;5090805;28;20980;-67
2023/08/24 01:57:38;;;;;;;10.50;5.47;;;19.10;99.90;;;;;;5090915;28;20322;-67
2023/08/24 02:00:09;;;;;;;8.20;5.67;;;19.10;99.90;;;;;;5091066;28;20851;-69
2023/08/24 02:02:35;;;;;;;8.60;5.27;;;19.10;99.90;;;;;;5091299;28;20588;-67
2023/08/24 02:05:02;;;;;;;7.13;5.63;;;19.10;99.90;;;;;;5090694;28;20443;-68
2023/08/24 02:07:28;;;;;;;7.53;5.50;;;19.10;99.90;;;;;;5090744;28;20420;-68
2023/08/24 02:09:53;;;;;;;6.40;5.80;;;19.10;99.90;;;;;;5090939;28;20424;-68
2023/08/24 02:12:19;;;;;;;5.60;5.13;;;19.10;99.90;;;;;;5090773;28;20657;-67
2023/08/24 02:14:45;;;;;;;11.63;6.10;;;19.00;99.90;;;;;;5090561;28;20202;-67
2023/08/24 02:17:10;;;;;;;6.07;5.33;;;19.00;99.90;;;;;;5090510;28;20242;-68
2023/08/24 02:19:36;;;;;;;8.83;5.10;;;19.00;99.90;;;;;;5090683;28;20214;-68
2023/08/24 02:22:01;;;;;;;7.53;5.07;;;19.00;99.90;;;;;;5089017;28;20174;-68
2023/08/24 02:24:27;;;;;;;5.50;5.00;;;19.00;99.90;;;;;;5090383;28;20237;-68
2023/08/24 02:26:52;;;;;;;7.80;5.37;;;19.00;99.90;;;;;;5090372;28;20191;-67
2023/08/24 02:29:18;;;;;;;10.83;5.43;;;18.90;99.90;;;;;;5090546;28;20265;-67
2023/08/24 02:31:44;;;;;;;6.63;5.27;;;19.00;99.90;;;;;;5090376;28;20636;-67
2023/08/24 02:34:10;;;;;;;6.30;5.40;;;18.90;99.90;;;;;;5088970;28;20210;-67
2023/08/24 02:36:35;;;;;;;9.23;5.80;;;19.00;99.90;;;;;;5090113;28;20490;-67
2023/08/24 02:39:01;;;;;;;7.67;5.60;;;18.90;99.90;;;;;;5088933;28;20213;-67
2023/08/24 02:41:27;;;;;;;6.90;5.47;;;18.90;99.90;;;;;;5090127;28;20194;-67
2023/08/24 02:43:53;;;;;;;7.83;5.67;;;18.90;99.90;;;;;;5090288;28;20198;-67
2023/08/24 02:46:20;;;;;;;11.53;5.30;;;18.90;99.90;;;;;;5090096;28;20182;-67
2023/08/24 02:48:46;;;;;;;10.43;5.70;;;18.90;99.90;;;;;;5090425;28;20456;-67
2023/08/24 02:51:13;;;;;;;9.27;6.90;;;18.80;99.90;;;;;;5088991;28;20445;-67
2023/08/24 02:53:38;;;;;;;11.83;6.30;;;18.80;99.90;;;;;;5090091;28;20225;-67
2023/08/24 02:56:04;;;;;;;8.17;6.87;;;18.80;99.90;;;;;;5090189;28;20979;-67
2023/08/24 02:58:30;;;;;;;11.10;7.30;;;18.90;99.90;;;;;;5090596;28;20667;-71
2023/08/24 03:00:56;;;;;;;14.80;7.00;;;18.90;99.90;;;;;;5089332;28;20182;-70
2023/08/24 03:03:22;;;;;;;8.43;6.30;;;18.80;99.90;;;;;;5090631;28;20194;-70
2023/08/24 03:05:57;;;;;;;7.80;6.90;;;18.90;99.90;;;;;;5089195;28;20420;-70
2023/08/24 03:08:23;;;;;;;6.83;5.83;;;19.00;99.90;;;;;;5089276;28;20420;-70
2023/08/24 03:10:48;;;;;;;14.40;5.80;;;19.00;99.90;;;;;;5088912;28;20511;-70
2023/08/24 03:13:14;;;;;;;7.37;6.50;;;19.00;99.90;;;;;;5090320;28;20518;-70
2023/08/24 03:15:40;;;;;;;9.17;5.30;;;18.80;99.90;;;;;;5090202;28;20201;-70
2023/08/24 03:18:05;;;;;;;8.63;5.90;;;18.80;99.90;;;;;;5088731;28;20276;-69
2023/08/24 03:20:31;;;;;;;13.50;5.70;;;18.80;99.90;;;;;;5090496;28;20190;-70
2023/08/24 03:22:57;;;;;;;6.57;5.67;;;18.80;99.90;;;;;;5089154;28;20283;-70
2023/08/24 03:25:23;;;;;;;11.00;6.87;;;18.80;99.90;;;;;;5090204;28;21218;-70
2023/08/24 03:27:50;;;;;;;7.97;6.00;;;18.80;99.90;;;;;;5090235;28;20174;-70
2023/08/24 03:30:16;;;;;;;7.30;6.70;;;18.80;99.90;;;;;;5090170;28;20495;-69
2023/08/24 03:32:41;;;;;;;9.30;6.40;;;18.80;99.90;;;;;;5089776;28;20531;-70
2023/08/24 03:35:07;;;;;;;6.87;6.17;;;18.80;99.90;;;;;;5089397;28;20201;-71
2023/08/24 03:37:33;;;;;;;9.53;7.47;;;18.70;99.90;;;;;;5089449;28;20206;-71
2023/08/24 03:39:59;;;;;;;10.03;7.70;;;18.70;99.90;;;;;;5089334;28;20450;-70
2023/08/24 03:42:24;;;;;;;14.20;7.23;;;18.60;99.90;;;;;;5089340;28;20427;-70
2023/08/24 03:44:50;;;;;;;13.13;6.40;;;18.60;99.90;;;;;;5089232;28;20202;-70
2023/08/24 03:47:15;;;;;;;11.87;7.17;;;18.60;99.90;;;;;;5088050;28;20186;-70
2023/08/24 03:49:44;;;;;;;7.37;6.67;;;18.40;99.90;;;;;;5089494;28;20189;-70
2023/08/24 03:52:10;;;;;;;8.33;6.17;;;18.50;99.90;;;;;;5088071;28;20216;-70
2023/08/24 03:54:35;;;;;;;12.87;6.80;;;18.60;99.90;;;;;;5088007;28;20497;-70
2023/08/24 03:57:01;;;;;;;17.40;7.03;;;18.50;99.90;;;;;;5088117;28;20221;-70
2023/08/24 03:59:27;;;;;;;17.43;6.67;;;18.60;99.90;;;;;;5087607;28;20170;-70
2023/08/24 04:01:53;;;;;;;15.33;7.20;;;18.70;99.90;;;;;;5089519;28;20780;-71
2023/08/24 04:04:18;;;;;;;7.83;6.10;;;18.60;99.90;;;;;;5087925;28;20225;-70
2023/08/24 04:06:44;;;;;;;9.03;6.80;;;18.60;99.90;;;;;;5089524;28;20201;-71
2023/08/24 04:09:10;;;;;;;12.50;6.90;;;18.60;99.90;;;;;;5089502;28;20196;-71
2023/08/24 04:11:36;;;;;;;15.07;6.57;;;18.60;99.90;;;;;;5089496;28;20187;-71
2023/08/24 04:14:01;;;;;;;6.33;5.73;;;18.70;99.90;;;;;;5089323;28;21027;-71
2023/08/24 04:16:27;;;;;;;8.23;7.43;;;18.60;99.90;;;;;;5089165;28;20210;-71
2023/08/24 04:18:52;;;;;;;16.23;7.27;;;18.60;99.90;;;;;;5089248;28;20182;-70
2023/08/24 04:21:18;;;;;;;9.17;7.53;;;18.40;99.90;;;;;;5089140;28;20193;-70
2023/08/24 04:23:45;;;;;;;10.23;7.30;;;18.40;99.90;;;;;;5052806;28;20220;-71
2023/08/24 04:26:13;;;;;;;11.00;7.20;;;18.30;99.90;;;;;;5069245;28;20225;-70
2023/08/24 04:28:39;;;;;;;7.87;7.10;;;18.30;99.90;;;;;;5087160;28;20430;-71
2023/08/24 04:31:05;;;;;;;10.43;6.63;;;18.50;99.90;;;;;;5068970;28;20754;-71
2023/08/24 04:33:31;;;;;;;7.50;6.80;;;18.60;99.90;;;;;;5069313;28;20192;-70
2023/08/24 04:35:56;;;;;;;11.00;8.10;;;18.60;99.90;;;;;;5087319;28;20476;-70
2023/08/24 04:38:22;;;;;;;7.23;6.50;;;18.60;99.90;;;;;;5087367;28;20186;-71
2023/08/24 04:40:52;;;;;;;11.63;7.50;;;18.60;99.90;;;;;;5087548;28;20208;-70
2023/08/24 04:43:22;;;;;;;8.90;7.10;;;18.60;99.90;;;;;;5087476;28;20508;-70
2023/08/24 04:45:52;;;;;;;9.67;7.57;;;18.70;99.90;;;;;;5087507;28;20427;-71
2023/08/24 04:48:18;;;;;;;9.90;6.77;;;18.70;99.90;;;;;;5087417;28;20418;-70
2023/08/24 04:50:45;;;;;;;10.03;6.97;;;18.70;99.90;;;;;;5087306;28;20444;-71
2023/08/24 04:53:15;;;;;;;14.77;8.07;;;18.70;99.90;;;;;;5085691;28;20920;-71
2023/08/24 04:55:41;;;;;;;11.60;7.73;;;18.80;99.90;;;;;;5087015;28;20490;-71
2023/08/24 04:58:08;;;;;;;9.87;6.80;;;18.80;99.90;;;;;;5087129;28;20512;-71
2023/08/24 05:00:35;;;;;;;8.33;7.50;;;18.80;99.90;;;;;;5086781;28;20909;-71
2023/08/24 05:03:01;;;;;;;11.73;7.60;;;18.70;99.90;;;;;;5087101;28;20453;-71
2023/08/24 05:05:29;;;;;;;9.80;6.93;;;18.80;99.90;;;;;;5085174;28;20442;-71
2023/08/24 05:07:55;;;;;;;11.20;7.70;;;18.90;99.90;;;;;;5086979;28;20428;-70
2023/08/24 05:10:22;;;;;;;10.83;7.03;;;18.80;99.90;;;;;;5088859;28;20428;-71
2023/08/24 05:12:47;;;;;;;13.07;7.87;;;18.90;99.90;;;;;;5090589;28;20423;-71
2023/08/24 05:15:13;;;;;;;8.30;7.50;;;19.00;99.90;;;;;;5090601;28;20784;-71
2023/08/24 05:17:40;;;;;;;10.60;7.00;;;19.10;99.90;;;;;;5090624;28;20292;-70
2023/08/24 05:20:07;;;;;;;8.70;7.87;;;19.10;99.90;;;;;;5090615;28;20177;-71
2023/08/24 05:22:33;;;;;;;8.20;7.17;;;19.10;99.90;;;;;;5090652;28;20420;-71
2023/08/24 05:24:59;;;;;;;9.50;6.90;;;19.20;99.90;;;;;;5090321;28;20449;-71
2023/08/24 05:27:24;;;;;;;9.40;6.73;;;19.10;99.90;;;;;;5090239;28;20783;-70
2023/08/24 05:29:50;;;;;;;10.10;7.93;;;19.20;99.90;;;;;;5071736;28;20201;-71
2023/08/24 05:32:15;;;;;;;18.67;7.43;;;19.20;99.90;;;;;;5090141;28;20194;-70
2023/08/24 05:34:41;;;;;;;11.87;7.03;;;19.30;99.90;;;;;;5090120;28;20232;-71
2023/08/24 05:37:06;;;;;;;14.93;8.07;;;19.40;99.90;;;;;;5088653;28;20908;-71
2023/08/24 05:39:32;;;;;;;14.30;8.70;;;19.40;99.90;;;;;;5090149;28;20235;-70
2023/08/24 05:41:57;;;;;;;16.37;7.07;;;19.40;99.90;;;;;;5088728;28;20208;-70
2023/08/24 05:44:23;;;;;;;11.73;8.30;;;19.50;99.90;;;;;;5089758;28;20197;-71
2023/08/24 05:46:49;;;;;;;9.50;8.10;;;19.60;99.90;;;;;;5089933;28;20229;-70
2023/08/24 05:49:14;;;;;;;10.43;7.83;;;19.50;99.90;;;;;;5090076;28;20194;-70
2023/08/24 05:51:43;;;;;;;11.60;7.77;;;19.60;99.90;;;;;;5089862;28;20666;-71
2023/08/24 05:54:09;;;;;;;8.20;7.37;;;19.70;99.90;;;;;;5088298;28;20220;-71
2023/08/24 05:56:34;;;;;;;8.53;7.67;;;19.80;99.90;;;;;;5089610;28;20472;-71
2023/08/24 05:59:01;;;;;;;8.30;7.40;;;19.80;99.90;;;;;;5089731;28;20221;-70
2023/08/24 06:01:26;;;;;;;7.83;7.03;;;19.80;99.90;;;;;;5089600;28;20270;-70
2023/08/24 06:03:52;;;;;;;13.57;7.73;;;19.90;99.90;;;;;;5089407;28;20519;-70
2023/08/24 06:06:23;;;;;;;12.80;7.10;;;19.90;99.90;;;;;;5088154;28;20190;-70
2023/08/24 06:08:48;;;;;;;10.90;6.70;;;20.10;99.90;;;;;;5089572;28;20191;-70
2023/08/24 06:11:14;;;;;;;12.67;7.00;;;20.20;99.90;;;;;;5089408;28;20485;-70
2023/08/24 06:13:40;;;;;;;12.67;7.90;;;20.30;99.90;;;;;;5087925;28;20238;-71
2023/08/24 06:16:06;;;;;;;10.33;7.30;;;20.40;99.90;;;;;;5089341;28;20752;-70
2023/08/24 06:18:31;;;;;;;11.03;7.60;;;20.60;99.90;;;;;;5087888;28;20212;-70
2023/08/24 06:20:57;;;;;;;8.83;6.90;;;20.80;99.90;;;;;;5089066;28;20409;-70
2023/08/24 06:23:22;;;;;;;7.60;6.90;;;20.80;99.90;;;;;;5070671;28;20182;-71
2023/08/24 06:25:48;;;;;;;11.37;6.87;;;20.80;99.90;;;;;;5089081;28;20210;-70
2023/08/24 06:28:14;;;;;;;15.70;6.80;;;20.80;99.90;;;;;;5089134;28;20586;-70
2023/08/24 06:30:40;;;;;;;10.60;7.00;;;20.80;99.90;;;;;;5089463;28;20211;-70
2023/08/24 06:33:07;;;;;;;9.23;6.90;;;20.80;99.90;;;;;;5088028;28;20187;-70
2023/08/24 06:35:33;;;;;;;9.83;7.07;;;20.90;99.90;;;;;;5089455;28;20432;-70
2023/08/24 06:37:59;;;;;;;10.40;6.40;;;21.00;99.90;;;;;;5089478;28;20826;-70
2023/08/24 06:40:24;;;;;;;10.97;7.43;;;21.00;99.90;;;;;;5089359;28;20467;-70
2023/08/24 06:42:50;;;;;;;10.93;7.03;;;21.10;99.90;;;;;;5088019;28;20564;-70
2023/08/24 06:45:18;;;;;;;8.83;7.43;;;21.00;99.90;;;;;;5088079;28;20210;-71
2023/08/24 06:47:44;;;;;;;11.67;7.90;;;21.00;99.90;;;;;;5089569;28;20558;-70
2023/08/24 06:50:10;;;;;;;15.37;8.03;;;20.90;99.90;;;;;;5089300;28;20417;-71
2023/08/24 06:52:35;;;;;;;8.90;7.60;;;20.90;99.90;;;;;;5071244;28;20210;-71
2023/08/24 06:55:02;;;;;;;11.33;7.30;;;20.80;99.90;;;;;;5087757;28;20476;-70
2023/08/24 06:57:28;;;;;;;10.23;8.07;;;20.80;99.90;;;;;;5089210;28;20236;-71
2023/08/24 06:59:53;;;;;;;11.87;7.50;;;20.70;99.90;;;;;;5089201;28;20456;-71
2023/08/24 07:02:19;;;;;;;13.60;7.53;;;20.70;99.90;;;;;;5088816;28;20194;-70
2023/08/24 07:04:44;;;;;;;11.23;9.27;;;20.80;99.90;;;;;;5088903;28;20205;-71
2023/08/24 07:07:10;;;;;;;11.13;8.30;;;20.80;99.90;;;;;;5087478;28;20257;-71
2023/08/24 07:09:36;;;;;;;11.30;8.40;;;20.80;99.90;;;;;;5089159;28;20194;-71
2023/08/24 07:12:06;;;;;;;10.63;8.50;;;20.80;99.90;;;;;;5089183;28;20187;-70
2023/08/24 07:14:33;;;;;;;12.90;8.47;;;20.70;99.90;;;;;;5089076;28;20206;-70
2023/08/24 07:16:58;;;;;;;10.17;7.73;;;20.70;99.90;;;;;;5089338;28;20459;-71
2023/08/24 07:19:24;;;;;;;12.23;7.73;;;20.70;99.90;;;;;;5089172;28;20469;-71
2023/08/24 07:21:50;;;;;;;12.57;7.53;;;20.90;99.90;;;;;;5088005;28;20189;-70
2023/08/24 07:24:18;;;;;;;14.10;7.77;;;21.00;99.90;;;;;;5089512;28;20202;-71
2023/08/24 07:26:45;;;;;;;10.10;7.90;;;20.90;99.90;;;;;;5088023;28;20194;-70
2023/08/24 07:29:11;;;;;;;8.53;7.63;;;20.90;99.90;;;;;;5087819;28;20416;-71
2023/08/24 07:31:36;;;;;;;9.43;7.77;;;21.00;99.90;;;;;;5087686;28;20490;-70
2023/08/24 07:34:03;;;;;;;10.80;7.97;;;21.00;99.90;;;;;;5088122;28;20226;-71
2023/08/24 07:36:29;;;;;;;11.20;7.83;;;21.10;99.90;;;;;;5087242;28;20294;-71
2023/08/24 07:38:54;;;;;;;12.47;8.03;;;21.10;99.90;;;;;;5088606;28;20508;-70
2023/08/24 07:41:20;;;;;;;10.00;7.77;;;21.40;99.90;;;;;;5088508;28;20420;-70
2023/08/24 07:43:45;;;;;;;14.93;8.43;;;21.40;99.90;;;;;;5088497;28;20203;-70
2023/08/24 07:46:11;;;;;;;12.00;7.50;;;21.60;99.90;;;;;;5087351;28;20211;-70
2023/08/24 07:48:37;;;;;;;9.50;7.23;;;21.40;99.90;;;;;;5088649;28;20196;-70
2023/08/24 07:51:03;;;;;;;10.27;7.30;;;21.60;99.90;;;;;;5088315;28;20207;-70
2023/08/24 07:53:29;;;;;;;12.10;7.57;;;21.80;99.90;;;;;;5086730;28;20621;-70
2023/08/24 07:55:57;;;;;;;13.63;6.90;;;22.00;99.90;;;;;;5088290;28;20446;-70
2023/08/24 07:58:23;;;;;;;8.30;7.20;;;22.20;99.90;;;;;;5088175;28;20429;-70
2023/08/24 08:00:52;;;;;;;11.10;7.37;;;22.20;99.90;;;;;;5088324;28;20418;-70
2023/08/24 08:03:20;;;;;;;8.10;6.63;;;22.40;99.90;;;;;;5088466;28;20413;-70
2023/08/24 08:05:47;;;;;;;12.27;7.20;;;22.40;99.90;;;;;;5088243;28;20477;-70
2023/08/24 08:08:16;;;;;;;12.07;6.77;;;22.40;99.90;;;;;;5087000;28;20408;-70
2023/08/24 08:10:42;;;;;;;11.50;6.23;;;22.40;99.90;;;;;;5086952;28;20430;-70
2023/08/24 08:13:11;;;;;;;7.43;5.43;;;22.60;99.90;;;;;;5088024;28;20420;-70
2023/08/24 08:15:38;;;;;;;7.23;5.60;;;22.90;99.90;;;;;;5087782;28;20441;-70
2023/08/24 08:18:04;;;;;;;9.00;6.37;;;23.10;99.90;;;;;;5088087;28;20429;-70
2023/08/24 08:20:30;;;;;;;9.13;5.70;;;23.20;99.90;;;;;;5086848;28;20429;-70
2023/08/24 08:22:56;;;;;;;7.63;6.30;;;23.30;99.90;;;;;;5088260;28;20430;-70
2023/08/24 08:25:22;;;;;;;6.07;5.53;;;23.50;99.90;;;;;;5088469;28;20939;-70
2023/08/24 08:27:48;;;;;;;10.33;5.70;;;23.60;99.90;;;;;;5088794;28;20184;-70
2023/08/24 08:30:15;;;;;;;7.20;5.20;;;23.80;99.90;;;;;;5088357;28;20833;-70
2023/08/24 08:32:40;;;;;;;6.03;5.50;;;23.90;99.90;;;;;;5088486;28;20431;-71
2023/08/24 08:35:08;;;;;;;9.57;6.27;;;24.00;99.90;;;;;;5088266;28;20448;-72
2023/08/24 08:37:33;;;;;;;15.97;5.63;;;24.30;99.90;;;;;;5086674;28;20217;-70
2023/08/24 08:39:59;;;;;;;10.03;6.33;;;24.40;99.90;;;;;;5087754;28;20450;-69
2023/08/24 08:42:24;;;;;;;11.33;5.27;;;24.60;99.90;;;;;;5085949;28;20708;-70
2023/08/24 08:44:53;;;;;;;5.70;5.10;;;24.80;99.90;;;;;;5088364;28;20235;-70
2023/08/24 08:47:20;;;;;;;5.50;5.00;;;24.90;99.90;;;;;;5089599;28;20200;-71
2023/08/24 08:49:48;;;;;;;11.40;5.40;;;25.10;99.90;;;;;;5091277;28;20801;-71
2023/08/24 08:52:13;;;;;;;6.57;4.90;;;25.30;99.90;;;;;;5090923;28;20798;-71
2023/08/24 08:54:40;;;;;;;7.23;5.07;;;25.50;99.90;;;;;;5090891;28;20460;-71
2023/08/24 08:57:06;;;;;;;5.60;5.00;;;25.70;99.90;;;;;;5090608;28;20267;-71
2023/08/24 08:59:33;;;;;;;6.97;5.13;;;25.90;99.90;;;;;;5089548;28;20423;-71
2023/08/24 09:02:01;;;;;;;7.17;5.07;;;26.00;99.90;;;;;;5090924;28;21231;-71
2023/08/24 09:04:33;;;;;;;8.10;5.23;;;26.20;99.90;;;;;;5090565;28;20440;-70
2023/08/24 09:07:07;;;;;;;6.13;5.03;;;26.40;99.90;;;;;;5090734;28;20527;-73
2023/08/24 09:09:33;;;;;;;7.57;5.00;;;26.50;99.90;;;;;;5090563;28;20427;-73
2023/08/24 09:11:59;;;;;;;8.30;4.90;;;26.80;99.90;;;;;;5090452;28;20455;-72
2023/08/24 09:14:25;;;;;;;12.80;5.70;;;26.90;99.90;;;;;;5088998;28;20340;-73
2023/08/24 09:16:50;;;;;;;7.93;5.07;;;27.20;99.90;;;;;;5090318;28;20591;-71
2023/08/24 09:19:16;;;;;;;5.77;4.77;;;27.40;99.90;;;;;;5090445;28;20183;-73
2023/08/24 09:21:42;;;;;;;6.17;4.60;;;27.70;99.90;;;;;;5090330;28;20573;-74
2023/08/24 09:24:08;;;;;;;6.53;5.03;;;28.00;99.90;;;;;;5090223;28;20289;-73
2023/08/24 09:26:36;;;;;;;6.83;4.63;;;28.30;99.90;;;;;;5090159;28;20182;-71
2023/08/24 09:29:15;;;;;;;6.03;5.43;;;28.60;99.90;;;;;;5088626;28;20436;-70
2023/08/24 09:31:45;;;;;;;4.93;4.10;;;28.90;99.90;;;;;;5090215;28;20416;-70
2023/08/24 09:34:11;;;;;;;5.23;4.73;;;29.20;99.90;;;;;;5088330;28;20453;-72
2023/08/24 09:36:38;;;;;;;8.60;4.63;;;29.60;99.90;;;;;;5089721;28;20471;-71
2023/08/24 09:39:04;;;;;;;8.73;4.90;;;29.90;99.90;;;;;;5088050;28;20447;-70
2023/08/24 09:41:47;;;;;;;9.20;4.97;;;30.20;99.90;;;;;;5089714;28;20508;-70
2023/08/24 09:44:13;;;;;;;10.17;5.30;;;30.40;99.90;;;;;;5087934;28;20448;-70
2023/08/24 09:46:39;;;;;;;7.43;4.90;;;30.70;99.90;;;;;;5088285;28;20427;-71
2023/08/24 09:49:06;;;;;;;7.00;4.40;;;31.00;99.90;;;;;;5089682;28;20182;-72
2023/08/24 09:51:36;;;;;;;7.90;5.53;;;31.30;99.90;;;;;;5089546;28;20413;-72
2023/08/24 09:54:08;;;;;;;9.73;4.30;;;31.50;99.90;;;;;;5089547;28;20462;-72
2023/08/24 09:56:41;;;;;;;7.23;5.17;;;31.60;99.90;;;;;;5070962;28;20472;-71
2023/08/24 09:59:14;;;;;;;14.60;4.97;;;31.70;99.90;;;;;;5089518;28;20450;-71
2023/08/24 10:01:45;;;;;;;7.70;4.90;;;32.00;99.90;;;;;;5087919;28;20845;-70
2023/08/24 10:04:15;;;;;;;8.20;5.00;;;32.30;99.90;;;;;;5089093;28;20814;-71
2023/08/24 10:06:44;;;;;;;7.40;5.10;;;32.60;99.90;;;;;;5089239;28;20424;-71
2023/08/24 10:09:24;;;;;;;9.53;4.63;;;32.80;99.90;;;;;;5089134;28;20807;-71
2023/08/24 10:11:56;;;;;;;7.67;4.60;;;32.90;99.90;;;;;;5089308;28;20416;-70
2023/08/24 10:14:32;;;;;;;14.70;5.30;;;33.20;99.90;;;;;;5089102;28;20455;-71
2023/08/24 10:16:58;;;;;;;7.63;5.20;;;33.30;99.90;;;;;;5089000;28;20821;-72
2023/08/24 10:19:25;;;;;;;8.70;5.17;;;33.30;99.90;;;;;;5089244;28;20519;-71
2023/08/24 10:21:53;;;;;;;6.23;4.90;;;33.40;99.90;;;;;;5089070;28;20411;-72
2023/08/24 10:24:23;;;;;;;6.17;4.43;;;33.80;99.90;;;;;;5088847;28;20874;-70
2023/08/24 10:26:50;;;;;;;9.33;6.00;;;33.90;99.90;;;;;;5088825;28;20800;-71
2023/08/24 10:29:17;;;;;;;5.87;5.17;;;33.90;99.90;;;;;;5087562;28;20939;-72
2023/08/24 10:31:43;;;;;;;6.33;4.83;;;33.90;99.90;;;;;;5088746;28;20947;-71
2023/08/24 10:34:10;;;;;;;5.90;4.70;;;34.10;99.90;;;;;;5088689;28;20539;-71
2023/08/24 10:36:39;;;;;;;8.53;5.40;;;34.40;99.90;;;;;;5087027;28;20467;-71
2023/08/24 10:39:05;;;;;;;8.40;5.20;;;34.40;99.90;;;;;;5088596;28;20470;-72
2023/08/24 10:41:47;;;;;;;10.33;4.57;;;34.20;99.90;;;;;;5088593;28;20420;-71
2023/08/24 10:44:21;;;;;;;8.57;5.30;;;33.70;99.90;;;;;;5088460;28;20952;-72
2023/08/24 10:47:13;;;;;;;7.33;5.37;;;33.30;99.90;;;;;;5087317;28;20915;-72
2023/08/24 10:49:39;;;;;;;13.13;4.93;;;32.90;99.90;;;;;;5088542;28;20752;-74
2023/08/24 10:52:24;;;;;;;6.50;5.00;;;32.80;99.90;;;;;;5087030;28;20421;-71
2023/08/24 10:54:52;;;;;;;8.53;5.80;;;32.70;99.90;;;;;;5088271;28;21097;-73
2023/08/24 10:57:27;;;;;;;6.33;5.73;;;32.60;99.90;;;;;;5088218;28;20487;-72
2023/08/24 11:00:05;;;;;;;5.30;4.80;;;32.40;99.90;;;;;;5089387;28;20412;-72
2023/08/24 11:02:41;;;;;;;10.80;5.90;;;32.20;99.90;;;;;;5089790;28;20425;-72
2023/08/24 11:05:19;;;;;;;8.03;5.67;;;32.30;99.90;;;;;;5089612;28;20428;-71
2023/08/24 11:08:03;;;;;;;10.80;6.20;;;32.40;99.90;;;;;;5089534;28;20412;-71
2023/08/24 11:10:40;;;;;;;8.70;6.97;;;32.30;99.90;;;;;;5089623;28;20427;-71
2023/08/24 11:13:14;;;;;;;12.03;5.50;;;32.20;99.90;;;;;;5089667;28;20888;-72
2023/08/24 11:15:44;;;;;;;6.83;4.93;;;32.10;99.90;;;;;;5088991;28;20933;-73
2023/08/24 11:18:19;;;;;;;9.63;5.33;;;32.10;99.90;;;;;;5087210;28;20424;-73
2023/08/24 11:20:46;;;;;;;10.43;6.10;;;32.20;99.90;;;;;;5070691;28;20514;-72
2023/08/24 11:23:14;;;;;;;9.23;5.20;;;32.20;99.90;;;;;;5088040;28;20412;-72
2023/08/24 11:25:40;;;;;;;7.07;5.70;;;32.20;99.90;;;;;;5087786;28;20428;-73
2023/08/24 11:28:06;;;;;;;10.07;5.10;;;32.20;99.90;;;;;;5087694;28;20401;-71
2023/08/24 11:30:35;;;;;;;12.63;5.17;;;32.40;99.90;;;;;;5088028;28;20613;-73
2023/08/24 11:33:01;;;;;;;12.80;5.73;;;32.50;99.90;;;;;;5086594;28;20181;-73
2023/08/24 11:35:27;;;;;;;10.03;6.07;;;32.60;99.90;;;;;;5088009;28;20796;-72
2023/08/24 11:37:53;;;;;;;10.73;5.33;;;32.70;99.90;;;;;;5087721;28;20459;-71
2023/08/24 11:40:20;;;;;;;10.33;7.00;;;32.80;99.90;;;;;;5087862;28;20420;-72
2023/08/24 11:42:53;;;;;;;8.37;5.80;;;32.90;99.90;;;;;;5088120;28;20408;-72
2023/08/24 11:45:18;;;;;;;23.87;6.10;;;33.00;99.90;;;;;;5088423;28;20924;-72
2023/08/24 11:47:44;;;;;;;9.10;5.43;;;33.10;99.90;;;;;;5088113;28;20411;-71
2023/08/24 11:50:10;;;;;;;10.73;5.87;;;33.20;99.90;;;;;;5086791;28;20273;-70
2023/08/24 11:52:40;;;;;;;12.27;6.07;;;33.30;99.90;;;;;;5088007;28;20197;-68
2023/08/24 11:55:06;;;;;;;15.47;5.77;;;33.20;99.90;;;;;;5087545;28;20460;-68
2023/08/24 11:57:36;;;;;;;7.83;5.10;;;33.30;99.90;;;;;;5087410;28;20463;-70
2023/08/24 12:00:04;;;;;;;6.90;5.33;;;33.40;99.90;;;;;;5087600;28;20636;-69
2023/08/24 12:02:30;;;;;;;7.20;5.20;;;33.50;99.90;;;;;;5087541;28;20957;-69
2023/08/24 12:04:57;;;;;;;13.13;5.87;;;33.70;99.90;;;;;;5087990;28;20447;-68
2023/08/24 12:07:23;;;;;;;17.87;5.40;;;33.80;99.90;;;;;;5087647;28;20423;-69
2023/08/24 12:09:52;;;;;;;12.23;5.50;;;33.90;99.90;;;;;;5087876;28;20432;-68
2023/08/24 12:12:20;;;;;;;6.67;4.70;;;33.90;99.90;;;;;;5086559;28;20175;-69
2023/08/24 12:14:47;;;;;;;8.13;5.27;;;33.90;99.90;;;;;;5087891;28;20517;-68
2023/08/24 12:17:13;;;;;;;10.20;5.57;;;33.90;98.80;;;;;;5086558;28;20993;-69
2023/08/24 12:19:46;;;;;;;16.97;5.20;;;34.10;99.90;;;;;;5087467;28;20419;-69
2023/08/24 12:22:16;;;;;;;8.67;4.50;;;34.10;99.60;;;;;;5088145;28;20451;-68
2023/08/24 12:24:48;;;;;;;13.03;5.27;;;34.30;99.90;;;;;;5087936;28;20431;-68
2023/08/24 12:27:21;;;;;;;14.13;5.27;;;34.40;99.90;;;;;;5086259;28;20453;-69
2023/08/24 12:29:47;;;;;;;9.93;5.23;;;34.50;99.40;;;;;;5086280;28;20412;-69
2023/08/24 12:32:15;;;;;;;16.07;5.10;;;34.60;99.00;;;;;;5088412;28;20908;-70
2023/08/24 12:34:41;;;;;;;12.47;4.47;;;34.60;98.40;;;;;;5087873;28;20552;-68
2023/08/24 12:37:06;;;;;;;10.57;5.10;;;34.50;97.90;;;;;;5087938;28;20521;-69
2023/08/24 12:39:36;;;;;;;14.63;5.33;;;34.50;97.40;;;;;;5088269;28;20186;-70
2023/08/24 12:42:02;;;;;;;17.60;6.07;;;34.60;97.30;;;;;;5088412;28;20186;-70
2023/08/24 12:44:28;;;;;;;29.73;6.00;;;34.60;97.40;;;;;;5086678;28;20501;-70